sensor_id;sensor_type;location;lat;lon;timestamp;temperature;humidity
37232;DHT22;23125;48.156;15.954;2023-05-29T00:01:58;15.40;54.70
37232;DHT22;23125;48.156;15.954;2023-05-29T00:04:23;15.40;54.60
37232;DHT22;23125;48.156;15.954;2023-05-29T00:06:49;15.40;54.70
37232;DHT22;23125;48.156;15.954;2023-05-29T00:09:16;15.40;54.60
37232;DHT22;23125;48.156;15.954;2023-05-29T00:11:42;15.30;54.60
37232;DHT22;23125;48.156;15.954;2023-05-29T00:14:08;15.20;54.50
37232;DHT22;23125;48.156;15.954;2023-05-29T00:16:33;15.20;54.70
37232;DHT22;23125;48.156;15.954;2023-05-29T00:19:00;15.10;54.80
37232;DHT22;23125;48.156;15.954;2023-05-29T00:21:26;15.10;54.90
37232;DHT22;23125;48.156;15.954;2023-05-29T00:23:51;15.10;55.00
37232;DHT22;23125;48.156;15.954;2023-05-29T00:26:17;15.10;55.00
37232;DHT22;23125;48.156;15.954;2023-05-29T00:28:43;15.00;55.00
37232;DHT22;23125;48.156;15.954;2023-05-29T00:31:09;15.00;55.10
37232;DHT22;23125;48.156;15.954;2023-05-29T00:33:37;15.00;55.10
37232;DHT22;23125;48.156;15.954;2023-05-29T00:36:03;15.00;55.10
37232;DHT22;23125;48.156;15.954;2023-05-29T00:38:31;15.00;55.10
37232;DHT22;23125;48.156;15.954;2023-05-29T00:40:57;14.90;55.10
37232;DHT22;23125;48.156;15.954;2023-05-29T00:43:24;14.80;55.20
37232;DHT22;23125;48.156;15.954;2023-05-29T00:45:50;14.90;55.30
37232;DHT22;23125;48.156;15.954;2023-05-29T00:48:16;14.80;55.20
37232;DHT22;23125;48.156;15.954;2023-05-29T00:50:44;14.80;55.20
37232;DHT22;23125;48.156;15.954;2023-05-29T00:53:10;14.70;55.20
37232;DHT22;23125;48.156;15.954;2023-05-29T00:55:36;14.70;55.20
37232;DHT22;23125;48.156;15.954;2023-05-29T00:58:03;14.60;55.40
37232;DHT22;23125;48.156;15.954;2023-05-29T01:00:30;14.50;55.40
37232;DHT22;23125;48.156;15.954;2023-05-29T01:02:59;14.50;55.40
37232;DHT22;23125;48.156;15.954;2023-05-29T01:05:29;14.50;55.50
37232;DHT22;23125;48.156;15.954;2023-05-29T01:07:54;14.40;55.60
37232;DHT22;23125;48.156;15.954;2023-05-29T01:10:20;14.40;55.80
37232;DHT22;23125;48.156;15.954;2023-05-29T01:12:57;14.40;55.80
37232;DHT22;23125;48.156;15.954;2023-05-29T01:15:29;14.40;56.00
37232;DHT22;23125;48.156;15.954;2023-05-29T01:20:36;14.30;55.80
37232;DHT22;23125;48.156;15.954;2023-05-29T01:23:25;14.30;55.90
37232;DHT22;23125;48.156;15.954;2023-05-29T01:26:14;14.30;56.00
37232;DHT22;23125;48.156;15.954;2023-05-29T01:28:47;14.30;55.90
37232;DHT22;23125;48.156;15.954;2023-05-29T01:31:18;14.20;56.00
37232;DHT22;23125;48.156;15.954;2023-05-29T01:33:52;14.20;56.00
37232;DHT22;23125;48.156;15.954;2023-05-29T01:36:18;14.20;56.00
37232;DHT22;23125;48.156;15.954;2023-05-29T01:38:44;14.20;55.90
37232;DHT22;23125;48.156;15.954;2023-05-29T01:41:10;14.10;55.80
37232;DHT22;23125;48.156;15.954;2023-05-29T01:43:37;14.10;55.90
37232;DHT22;23125;48.156;15.954;2023-05-29T01:46:03;14.00;56.10
37232;DHT22;23125;48.156;15.954;2023-05-29T01:48:29;13.90;56.10
37232;DHT22;23125;48.156;15.954;2023-05-29T01:50:56;13.90;56.20
37232;DHT22;23125;48.156;15.954;2023-05-29T01:53:23;13.90;56.40
37232;DHT22;23125;48.156;15.954;2023-05-29T01:55:50;13.80;56.40
37232;DHT22;23125;48.156;15.954;2023-05-29T01:58:18;13.80;56.40
37232;DHT22;23125;48.156;15.954;2023-05-29T02:00:46;13.80;56.50
37232;DHT22;23125;48.156;15.954;2023-05-29T02:03:12;13.80;56.40
37232;DHT22;23125;48.156;15.954;2023-05-29T02:05:38;13.80;56.50
37232;DHT22;23125;48.156;15.954;2023-05-29T02:08:04;13.80;56.40
37232;DHT22;23125;48.156;15.954;2023-05-29T02:10:31;13.70;56.30
37232;DHT22;23125;48.156;15.954;2023-05-29T02:12:57;13.60;56.40
37232;DHT22;23125;48.156;15.954;2023-05-29T02:15:23;13.60;56.60
37232;DHT22;23125;48.156;15.954;2023-05-29T02:17:50;13.50;56.70
37232;DHT22;23125;48.156;15.954;2023-05-29T02:20:16;13.50;56.70
37232;DHT22;23125;48.156;15.954;2023-05-29T02:22:42;13.50;56.80
37232;DHT22;23125;48.156;15.954;2023-05-29T02:25:08;13.50;56.80
37232;DHT22;23125;48.156;15.954;2023-05-29T02:27:34;13.50;56.80
37232;DHT22;23125;48.156;15.954;2023-05-29T02:29:59;13.50;56.80
37232;DHT22;23125;48.156;15.954;2023-05-29T02:32:26;13.50;56.90
37232;DHT22;23125;48.156;15.954;2023-05-29T02:34:54;13.40;57.00
37232;DHT22;23125;48.156;15.954;2023-05-29T02:37:20;13.40;57.00
37232;DHT22;23125;48.156;15.954;2023-05-29T02:39:46;13.40;56.90
37232;DHT22;23125;48.156;15.954;2023-05-29T02:42:12;13.40;57.00
37232;DHT22;23125;48.156;15.954;2023-05-29T02:44:38;13.40;56.90
37232;DHT22;23125;48.156;15.954;2023-05-29T02:47:04;13.30;56.90
37232;DHT22;23125;48.156;15.954;2023-05-29T02:49:30;13.40;57.10
37232;DHT22;23125;48.156;15.954;2023-05-29T02:51:56;13.30;57.10
37232;DHT22;23125;48.156;15.954;2023-05-29T02:54:25;13.30;57.10
37232;DHT22;23125;48.156;15.954;2023-05-29T02:56:52;13.30;57.10
37232;DHT22;23125;48.156;15.954;2023-05-29T02:59:18;13.30;57.00
37232;DHT22;23125;48.156;15.954;2023-05-29T03:01:44;13.20;57.00
37232;DHT22;23125;48.156;15.954;2023-05-29T03:04:11;13.20;57.10
37232;DHT22;23125;48.156;15.954;2023-05-29T03:06:37;13.20;57.20
37232;DHT22;23125;48.156;15.954;2023-05-29T03:09:03;13.10;57.30
37232;DHT22;23125;48.156;15.954;2023-05-29T03:11:31;13.10;57.40
37232;DHT22;23125;48.156;15.954;2023-05-29T03:13:58;13.10;57.50
37232;DHT22;23125;48.156;15.954;2023-05-29T03:16:25;13.10;57.50
37232;DHT22;23125;48.156;15.954;2023-05-29T03:18:55;13.10;57.60
37232;DHT22;23125;48.156;15.954;2023-05-29T03:21:21;13.10;57.60
37232;DHT22;23125;48.156;15.954;2023-05-29T03:23:47;13.10;58.20
37232;DHT22;23125;48.156;15.954;2023-05-29T03:26:13;13.10;57.70
37232;DHT22;23125;48.156;15.954;2023-05-29T03:28:39;13.10;57.70
37232;DHT22;23125;48.156;15.954;2023-05-29T03:31:05;13.10;57.80
37232;DHT22;23125;48.156;15.954;2023-05-29T03:33:31;13.10;57.80
37232;DHT22;23125;48.156;15.954;2023-05-29T03:35:57;13.10;57.80
37232;DHT22;23125;48.156;15.954;2023-05-29T03:38:23;13.10;57.90
37232;DHT22;23125;48.156;15.954;2023-05-29T03:40:49;13.10;58.00
37232;DHT22;23125;48.156;15.954;2023-05-29T03:43:15;13.10;58.30
37232;DHT22;23125;48.156;15.954;2023-05-29T03:45:41;13.10;57.90
37232;DHT22;23125;48.156;15.954;2023-05-29T03:48:06;13.10;58.00
37232;DHT22;23125;48.156;15.954;2023-05-29T03:50:32;13.10;58.10
37232;DHT22;23125;48.156;15.954;2023-05-29T03:52:58;13.10;58.30
37232;DHT22;23125;48.156;15.954;2023-05-29T03:55:26;13.20;58.50
37232;DHT22;23125;48.156;15.954;2023-05-29T03:57:54;13.20;58.60
37232;DHT22;23125;48.156;15.954;2023-05-29T04:00:20;13.20;58.60
37232;DHT22;23125;48.156;15.954;2023-05-29T04:02:46;13.30;58.60
37232;DHT22;23125;48.156;15.954;2023-05-29T04:05:11;13.30;58.70
37232;DHT22;23125;48.156;15.954;2023-05-29T04:07:39;13.30;58.70
37232;DHT22;23125;48.156;15.954;2023-05-29T04:10:07;13.40;58.90
37232;DHT22;23125;48.156;15.954;2023-05-29T04:12:34;13.40;59.10
37232;DHT22;23125;48.156;15.954;2023-05-29T04:15:00;13.50;59.10
37232;DHT22;23125;48.156;15.954;2023-05-29T04:17:26;13.50;59.10
37232;DHT22;23125;48.156;15.954;2023-05-29T04:19:52;13.60;59.20
37232;DHT22;23125;48.156;15.954;2023-05-29T04:22:17;13.70;59.20
37232;DHT22;23125;48.156;15.954;2023-05-29T04:24:46;13.70;59.20
37232;DHT22;23125;48.156;15.954;2023-05-29T04:27:12;13.80;59.40
37232;DHT22;23125;48.156;15.954;2023-05-29T04:29:42;13.90;59.50
37232;DHT22;23125;48.156;15.954;2023-05-29T04:32:11;14.00;59.40
37232;DHT22;23125;48.156;15.954;2023-05-29T04:34:38;14.00;59.50
37232;DHT22;23125;48.156;15.954;2023-05-29T04:37:05;14.10;59.50
37232;DHT22;23125;48.156;15.954;2023-05-29T04:39:32;14.20;59.60
37232;DHT22;23125;48.156;15.954;2023-05-29T04:41:58;14.30;59.60
37232;DHT22;23125;48.156;15.954;2023-05-29T04:44:27;14.40;59.70
37232;DHT22;23125;48.156;15.954;2023-05-29T04:46:55;14.50;59.80
37232;DHT22;23125;48.156;15.954;2023-05-29T04:49:23;14.60;60.00
37232;DHT22;23125;48.156;15.954;2023-05-29T04:51:49;14.80;60.10
37232;DHT22;23125;48.156;15.954;2023-05-29T04:54:18;14.90;60.00
37232;DHT22;23125;48.156;15.954;2023-05-29T04:56:46;15.00;60.00
37232;DHT22;23125;48.156;15.954;2023-05-29T04:59:12;15.10;60.00
37232;DHT22;23125;48.156;15.954;2023-05-29T05:01:38;15.30;60.00
37232;DHT22;23125;48.156;15.954;2023-05-29T05:04:04;15.40;59.90
37232;DHT22;23125;48.156;15.954;2023-05-29T05:06:30;15.50;59.90
37232;DHT22;23125;48.156;15.954;2023-05-29T05:08:56;15.60;60.00
37232;DHT22;23125;48.156;15.954;2023-05-29T05:11:23;15.70;60.10
37232;DHT22;23125;48.156;15.954;2023-05-29T05:13:49;15.90;60.70
37232;DHT22;23125;48.156;15.954;2023-05-29T05:16:15;16.10;60.90
37232;DHT22;23125;48.156;15.954;2023-05-29T05:18:43;16.50;61.30
37232;DHT22;23125;48.156;15.954;2023-05-29T05:21:09;16.70;61.40
37232;DHT22;23125;48.156;15.954;2023-05-29T05:23:36;16.90;61.30
37232;DHT22;23125;48.156;15.954;2023-05-29T05:26:02;17.30;61.60
37232;DHT22;23125;48.156;15.954;2023-05-29T05:28:28;17.70;61.80
37232;DHT22;23125;48.156;15.954;2023-05-29T05:30:54;18.00;61.60
37232;DHT22;23125;48.156;15.954;2023-05-29T05:33:20;18.40;61.40
37232;DHT22;23125;48.156;15.954;2023-05-29T05:35:46;18.70;61.00
37232;DHT22;23125;48.156;15.954;2023-05-29T05:38:11;19.00;60.60
37232;DHT22;23125;48.156;15.954;2023-05-29T05:40:37;19.40;60.50
37232;DHT22;23125;48.156;15.954;2023-05-29T05:43:03;19.80;60.30
37232;DHT22;23125;48.156;15.954;2023-05-29T05:45:29;20.10;59.80
37232;DHT22;23125;48.156;15.954;2023-05-29T05:47:56;20.40;59.60
37232;DHT22;23125;48.156;15.954;2023-05-29T05:50:22;20.70;58.90
37232;DHT22;23125;48.156;15.954;2023-05-29T05:52:48;21.00;58.60
37232;DHT22;23125;48.156;15.954;2023-05-29T05:55:14;21.30;58.20
37232;DHT22;23125;48.156;15.954;2023-05-29T05:57:40;21.60;58.20
37232;DHT22;23125;48.156;15.954;2023-05-29T06:00:06;22.00;58.00
37232;DHT22;23125;48.156;15.954;2023-05-29T06:02:39;22.30;57.60
37232;DHT22;23125;48.156;15.954;2023-05-29T06:05:10;22.70;57.30
37232;DHT22;23125;48.156;15.954;2023-05-29T06:07:38;23.00;56.80
37232;DHT22;23125;48.156;15.954;2023-05-29T06:10:04;23.40;56.60
37232;DHT22;23125;48.156;15.954;2023-05-29T06:12:30;23.80;56.10
37232;DHT22;23125;48.156;15.954;2023-05-29T06:14:56;24.10;55.80
37232;DHT22;23125;48.156;15.954;2023-05-29T06:17:23;24.40;54.60
37232;DHT22;23125;48.156;15.954;2023-05-29T06:19:49;24.70;54.20
37232;DHT22;23125;48.156;15.954;2023-05-29T06:22:15;25.10;53.80
37232;DHT22;23125;48.156;15.954;2023-05-29T06:24:41;25.40;53.20
37232;DHT22;23125;48.156;15.954;2023-05-29T06:27:07;25.90;53.10
37232;DHT22;23125;48.156;15.954;2023-05-29T06:29:34;26.30;52.40
37232;DHT22;23125;48.156;15.954;2023-05-29T06:31:59;26.80;52.00
37232;DHT22;23125;48.156;15.954;2023-05-29T06:34:26;27.20;50.80
37232;DHT22;23125;48.156;15.954;2023-05-29T06:36:52;27.60;50.30
37232;DHT22;23125;48.156;15.954;2023-05-29T06:39:18;28.00;49.40
37232;DHT22;23125;48.156;15.954;2023-05-29T06:41:46;28.30;48.70
37232;DHT22;23125;48.156;15.954;2023-05-29T06:44:12;28.70;48.10
37232;DHT22;23125;48.156;15.954;2023-05-29T06:46:37;29.00;47.50
37232;DHT22;23125;48.156;15.954;2023-05-29T06:49:04;29.50;46.90
37232;DHT22;23125;48.156;15.954;2023-05-29T06:51:30;29.90;46.00
37232;DHT22;23125;48.156;15.954;2023-05-29T06:53:58;30.20;45.00
37232;DHT22;23125;48.156;15.954;2023-05-29T06:56:24;30.40;43.90
37232;DHT22;23125;48.156;15.954;2023-05-29T06:58:49;30.70;43.20
37232;DHT22;23125;48.156;15.954;2023-05-29T07:01:15;30.90;42.70
37232;DHT22;23125;48.156;15.954;2023-05-29T07:03:44;31.00;41.70
37232;DHT22;23125;48.156;15.954;2023-05-29T07:06:10;31.10;40.90
37232;DHT22;23125;48.156;15.954;2023-05-29T07:08:35;31.10;40.20
37232;DHT22;23125;48.156;15.954;2023-05-29T07:11:02;31.20;39.90
37232;DHT22;23125;48.156;15.954;2023-05-29T07:13:28;31.20;39.40
37232;DHT22;23125;48.156;15.954;2023-05-29T07:15:53;31.30;38.90
37232;DHT22;23125;48.156;15.954;2023-05-29T07:18:19;31.20;38.10
37232;DHT22;23125;48.156;15.954;2023-05-29T07:20:45;31.20;37.80
37232;DHT22;23125;48.156;15.954;2023-05-29T07:23:11;31.20;37.50
37232;DHT22;23125;48.156;15.954;2023-05-29T07:25:37;31.20;37.40
37232;DHT22;23125;48.156;15.954;2023-05-29T07:28:03;31.10;36.90
37232;DHT22;23125;48.156;15.954;2023-05-29T07:30:29;31.20;37.00
37232;DHT22;23125;48.156;15.954;2023-05-29T07:32:55;31.30;36.50
37232;DHT22;23125;48.156;15.954;2023-05-29T07:35:21;31.40;36.10
37232;DHT22;23125;48.156;15.954;2023-05-29T07:37:47;31.50;35.80
37232;DHT22;23125;48.156;15.954;2023-05-29T07:40:15;31.60;35.70
37232;DHT22;23125;48.156;15.954;2023-05-29T07:42:41;31.70;35.40
37232;DHT22;23125;48.156;15.954;2023-05-29T07:45:07;32.00;35.30
37232;DHT22;23125;48.156;15.954;2023-05-29T07:47:33;32.10;34.50
37232;DHT22;23125;48.156;15.954;2023-05-29T07:49:59;32.20;34.50
37232;DHT22;23125;48.156;15.954;2023-05-29T07:52:25;32.40;34.30
37232;DHT22;23125;48.156;15.954;2023-05-29T07:54:50;32.50;33.60
37232;DHT22;23125;48.156;15.954;2023-05-29T07:57:16;32.60;33.40
37232;DHT22;23125;48.156;15.954;2023-05-29T07:59:42;32.60;32.90
37232;DHT22;23125;48.156;15.954;2023-05-29T08:02:09;32.70;33.00
37232;DHT22;23125;48.156;15.954;2023-05-29T08:04:35;32.90;33.10
37232;DHT22;23125;48.156;15.954;2023-05-29T08:07:02;33.00;32.60
37232;DHT22;23125;48.156;15.954;2023-05-29T08:09:31;33.10;31.90
37232;DHT22;23125;48.156;15.954;2023-05-29T08:11:57;33.10;31.70
37232;DHT22;23125;48.156;15.954;2023-05-29T08:14:23;33.20;31.40
37232;DHT22;23125;48.156;15.954;2023-05-29T08:16:49;33.20;31.30
37232;DHT22;23125;48.156;15.954;2023-05-29T08:19:16;33.30;31.10
37232;DHT22;23125;48.156;15.954;2023-05-29T08:21:41;33.40;30.70
37232;DHT22;23125;48.156;15.954;2023-05-29T08:24:08;33.40;30.60
37232;DHT22;23125;48.156;15.954;2023-05-29T08:26:35;33.40;30.10
37232;DHT22;23125;48.156;15.954;2023-05-29T08:29:01;33.40;30.00
37232;DHT22;23125;48.156;15.954;2023-05-29T08:31:29;33.40;30.00
37232;DHT22;23125;48.156;15.954;2023-05-29T08:33:56;33.40;30.00
37232;DHT22;23125;48.156;15.954;2023-05-29T08:36:21;33.50;30.00
37232;DHT22;23125;48.156;15.954;2023-05-29T08:38:50;33.60;30.00
37232;DHT22;23125;48.156;15.954;2023-05-29T08:41:37;33.80;30.00
37232;DHT22;23125;48.156;15.954;2023-05-29T08:44:08;34.00;29.90
37232;DHT22;23125;48.156;15.954;2023-05-29T08:46:37;34.00;29.60
37232;DHT22;23125;48.156;15.954;2023-05-29T08:49:04;34.00;29.70
37232;DHT22;23125;48.156;15.954;2023-05-29T08:51:32;34.10;29.60
37232;DHT22;23125;48.156;15.954;2023-05-29T08:54:03;34.10;29.40
37232;DHT22;23125;48.156;15.954;2023-05-29T08:56:29;34.10;29.30
37232;DHT22;23125;48.156;15.954;2023-05-29T08:58:57;34.10;29.10
37232;DHT22;23125;48.156;15.954;2023-05-29T09:01:23;34.10;29.00
37232;DHT22;23125;48.156;15.954;2023-05-29T09:03:51;34.00;28.70
37232;DHT22;23125;48.156;15.954;2023-05-29T09:06:17;33.90;28.50
37232;DHT22;23125;48.156;15.954;2023-05-29T09:08:44;33.80;28.40
37232;DHT22;23125;48.156;15.954;2023-05-29T09:11:10;33.70;28.30
37232;DHT22;23125;48.156;15.954;2023-05-29T09:13:36;33.60;28.30
37232;DHT22;23125;48.156;15.954;2023-05-29T09:16:01;33.60;28.50
37232;DHT22;23125;48.156;15.954;2023-05-29T09:18:30;33.60;28.50
37232;DHT22;23125;48.156;15.954;2023-05-29T09:20:57;33.70;28.60
37232;DHT22;23125;48.156;15.954;2023-05-29T09:23:25;33.80;28.70
37232;DHT22;23125;48.156;15.954;2023-05-29T09:25:52;34.00;29.30
37232;DHT22;23125;48.156;15.954;2023-05-29T09:28:21;33.90;27.90
37232;DHT22;23125;48.156;15.954;2023-05-29T09:30:49;33.90;28.40
37232;DHT22;23125;48.156;15.954;2023-05-29T09:33:16;34.10;28.40
37232;DHT22;23125;48.156;15.954;2023-05-29T09:35:47;34.20;28.30
37232;DHT22;23125;48.156;15.954;2023-05-29T09:38:16;34.30;27.50
37232;DHT22;23125;48.156;15.954;2023-05-29T09:40:42;34.20;26.90
37232;DHT22;23125;48.156;15.954;2023-05-29T09:43:18;34.10;27.00
37232;DHT22;23125;48.156;15.954;2023-05-29T09:45:47;34.10;27.40
37232;DHT22;23125;48.156;15.954;2023-05-29T09:48:22;34.20;27.30
37232;DHT22;23125;48.156;15.954;2023-05-29T09:50:48;34.20;27.10
37232;DHT22;23125;48.156;15.954;2023-05-29T09:53:24;34.20;27.10
37232;DHT22;23125;48.156;15.954;2023-05-29T09:55:52;34.30;27.20
37232;DHT22;23125;48.156;15.954;2023-05-29T09:58:19;34.20;26.90
37232;DHT22;23125;48.156;15.954;2023-05-29T10:00:46;34.20;26.80
37232;DHT22;23125;48.156;15.954;2023-05-29T10:03:13;34.00;26.70
37232;DHT22;23125;48.156;15.954;2023-05-29T10:05:40;33.80;26.70
37232;DHT22;23125;48.156;15.954;2023-05-29T10:08:14;33.70;26.90
37232;DHT22;23125;48.156;15.954;2023-05-29T10:10:44;33.40;27.00
37232;DHT22;23125;48.156;15.954;2023-05-29T10:13:13;33.10;27.30
37232;DHT22;23125;48.156;15.954;2023-05-29T10:15:44;32.70;26.40
37232;DHT22;23125;48.156;15.954;2023-05-29T10:18:21;32.20;26.40
37232;DHT22;23125;48.156;15.954;2023-05-29T10:20:50;31.90;26.90
37232;DHT22;23125;48.156;15.954;2023-05-29T10:23:21;31.60;26.90
37232;DHT22;23125;48.156;15.954;2023-05-29T10:25:52;31.20;27.20
37232;DHT22;23125;48.156;15.954;2023-05-29T10:28:20;30.90;27.50
37232;DHT22;23125;48.156;15.954;2023-05-29T10:31:02;30.50;27.40
37232;DHT22;23125;48.156;15.954;2023-05-29T10:34:09;30.10;27.60
37232;DHT22;23125;48.156;15.954;2023-05-29T10:36:46;29.70;28.20
37232;DHT22;23125;48.156;15.954;2023-05-29T10:39:15;29.50;29.10
37232;DHT22;23125;48.156;15.954;2023-05-29T10:41:42;29.40;29.40
37232;DHT22;23125;48.156;15.954;2023-05-29T10:44:37;29.30;29.60
37232;DHT22;23125;48.156;15.954;2023-05-29T10:47:05;29.20;29.60
37232;DHT22;23125;48.156;15.954;2023-05-29T10:49:31;29.10;30.00
37232;DHT22;23125;48.156;15.954;2023-05-29T10:51:58;29.00;30.00
37232;DHT22;23125;48.156;15.954;2023-05-29T10:54:40;29.00;30.00
37232;DHT22;23125;48.156;15.954;2023-05-29T10:57:08;28.90;30.40
37232;DHT22;23125;48.156;15.954;2023-05-29T10:59:36;28.90;30.80
37232;DHT22;23125;48.156;15.954;2023-05-29T11:02:04;28.80;31.00
37232;DHT22;23125;48.156;15.954;2023-05-29T11:04:33;28.80;31.40
37232;DHT22;23125;48.156;15.954;2023-05-29T11:07:00;28.70;31.30
37232;DHT22;23125;48.156;15.954;2023-05-29T11:09:37;28.70;31.70
37232;DHT22;23125;48.156;15.954;2023-05-29T11:14:45;28.70;31.70
37232;DHT22;23125;48.156;15.954;2023-05-29T11:17:31;28.60;31.30
37232;DHT22;23125;48.156;15.954;2023-05-29T11:20:02;28.40;31.10
37232;DHT22;23125;48.156;15.954;2023-05-29T11:25:04;28.30;31.70
37232;DHT22;23125;48.156;15.954;2023-05-29T11:27:30;28.20;31.80
37232;DHT22;23125;48.156;15.954;2023-05-29T11:29:57;28.10;31.60
37232;DHT22;23125;48.156;15.954;2023-05-29T11:32:28;27.90;31.30
37232;DHT22;23125;48.156;15.954;2023-05-29T11:34:56;27.80;31.30
37232;DHT22;23125;48.156;15.954;2023-05-29T11:37:25;27.80;31.80
37232;DHT22;23125;48.156;15.954;2023-05-29T11:39:51;27.70;31.50
37232;DHT22;23125;48.156;15.954;2023-05-29T11:42:17;27.60;31.60
37232;DHT22;23125;48.156;15.954;2023-05-29T11:44:43;27.60;32.10
37232;DHT22;23125;48.156;15.954;2023-05-29T11:47:09;27.50;32.30
37232;DHT22;23125;48.156;15.954;2023-05-29T11:49:36;27.50;32.10
37232;DHT22;23125;48.156;15.954;2023-05-29T11:52:06;27.50;32.30
37232;DHT22;23125;48.156;15.954;2023-05-29T11:54:33;27.50;32.30
37232;DHT22;23125;48.156;15.954;2023-05-29T11:57:01;27.50;32.20
37232;DHT22;23125;48.156;15.954;2023-05-29T11:59:32;27.40;31.80
37232;DHT22;23125;48.156;15.954;2023-05-29T12:02:02;27.30;31.50
37232;DHT22;23125;48.156;15.954;2023-05-29T12:04:29;27.30;31.50
37232;DHT22;23125;48.156;15.954;2023-05-29T12:06:55;27.20;31.50
37232;DHT22;23125;48.156;15.954;2023-05-29T12:09:25;27.10;31.80
37232;DHT22;23125;48.156;15.954;2023-05-29T12:11:52;27.10;31.50
37232;DHT22;23125;48.156;15.954;2023-05-29T12:14:18;27.10;31.30
37232;DHT22;23125;48.156;15.954;2023-05-29T12:16:44;27.00;31.60
37232;DHT22;23125;48.156;15.954;2023-05-29T12:19:10;27.00;31.70
37232;DHT22;23125;48.156;15.954;2023-05-29T12:21:41;27.00;31.50
37232;DHT22;23125;48.156;15.954;2023-05-29T12:24:09;27.00;31.90
37232;DHT22;23125;48.156;15.954;2023-05-29T12:26:35;27.00;31.80
37232;DHT22;23125;48.156;15.954;2023-05-29T12:29:05;27.00;31.90
37232;DHT22;23125;48.156;15.954;2023-05-29T12:31:32;27.00;31.90
37232;DHT22;23125;48.156;15.954;2023-05-29T12:34:07;27.00;31.90
37232;DHT22;23125;48.156;15.954;2023-05-29T12:36:33;27.00;32.30
37232;DHT22;23125;48.156;15.954;2023-05-29T12:38:59;27.00;31.90
37232;DHT22;23125;48.156;15.954;2023-05-29T12:41:33;27.00;31.50
37232;DHT22;23125;48.156;15.954;2023-05-29T12:44:02;27.00;31.50
37232;DHT22;23125;48.156;15.954;2023-05-29T12:46:40;26.90;31.50
37232;DHT22;23125;48.156;15.954;2023-05-29T12:49:15;26.90;31.70
37232;DHT22;23125;48.156;15.954;2023-05-29T12:51:43;26.90;31.50
37232;DHT22;23125;48.156;15.954;2023-05-29T12:54:11;26.80;31.60
37232;DHT22;23125;48.156;15.954;2023-05-29T12:56:38;26.90;31.80
37232;DHT22;23125;48.156;15.954;2023-05-29T12:59:07;26.90;31.40
37232;DHT22;23125;48.156;15.954;2023-05-29T13:01:34;26.80;31.30
37232;DHT22;23125;48.156;15.954;2023-05-29T13:04:00;26.80;31.30
37232;DHT22;23125;48.156;15.954;2023-05-29T13:06:26;26.80;31.50
37232;DHT22;23125;48.156;15.954;2023-05-29T13:08:52;26.70;31.90
37232;DHT22;23125;48.156;15.954;2023-05-29T13:11:18;26.70;31.90
37232;DHT22;23125;48.156;15.954;2023-05-29T13:13:44;26.70;31.90
37232;DHT22;23125;48.156;15.954;2023-05-29T13:16:10;26.70;31.60
37232;DHT22;23125;48.156;15.954;2023-05-29T13:18:36;26.70;31.80
37232;DHT22;23125;48.156;15.954;2023-05-29T13:21:02;26.70;32.10
37232;DHT22;23125;48.156;15.954;2023-05-29T13:23:28;26.70;31.80
37232;DHT22;23125;48.156;15.954;2023-05-29T13:25:54;26.60;31.50
37232;DHT22;23125;48.156;15.954;2023-05-29T13:28:20;26.60;31.50
37232;DHT22;23125;48.156;15.954;2023-05-29T13:30:47;26.60;31.60
37232;DHT22;23125;48.156;15.954;2023-05-29T13:33:13;26.50;31.90
37232;DHT22;23125;48.156;15.954;2023-05-29T13:35:38;26.50;31.50
37232;DHT22;23125;48.156;15.954;2023-05-29T13:38:04;26.50;31.70
37232;DHT22;23125;48.156;15.954;2023-05-29T13:40:30;26.50;31.90
37232;DHT22;23125;48.156;15.954;2023-05-29T13:42:57;26.50;32.20
37232;DHT22;23125;48.156;15.954;2023-05-29T13:45:23;26.50;32.30
37232;DHT22;23125;48.156;15.954;2023-05-29T13:47:49;26.50;32.20
37232;DHT22;23125;48.156;15.954;2023-05-29T13:50:15;26.50;32.20
37232;DHT22;23125;48.156;15.954;2023-05-29T13:52:41;26.50;32.00
37232;DHT22;23125;48.156;15.954;2023-05-29T13:55:07;26.40;31.60
37232;DHT22;23125;48.156;15.954;2023-05-29T13:57:35;26.40;31.50
37232;DHT22;23125;48.156;15.954;2023-05-29T14:00:03;26.30;31.30
37232;DHT22;23125;48.156;15.954;2023-05-29T14:02:29;26.30;31.20
37232;DHT22;23125;48.156;15.954;2023-05-29T14:04:56;26.30;31.40
37232;DHT22;23125;48.156;15.954;2023-05-29T14:07:21;26.30;31.50
37232;DHT22;23125;48.156;15.954;2023-05-29T14:09:48;26.30;31.50
37232;DHT22;23125;48.156;15.954;2023-05-29T14:12:14;26.30;31.50
37232;DHT22;23125;48.156;15.954;2023-05-29T14:14:40;26.40;31.60
37232;DHT22;23125;48.156;15.954;2023-05-29T14:17:06;26.40;31.60
37232;DHT22;23125;48.156;15.954;2023-05-29T14:19:32;26.40;31.50
37232;DHT22;23125;48.156;15.954;2023-05-29T14:21:58;26.40;31.20
37232;DHT22;23125;48.156;15.954;2023-05-29T14:24:25;26.30;31.30
37232;DHT22;23125;48.156;15.954;2023-05-29T14:26:51;26.40;31.50
37232;DHT22;23125;48.156;15.954;2023-05-29T14:29:17;26.40;31.60
37232;DHT22;23125;48.156;15.954;2023-05-29T14:31:43;26.40;31.60
37232;DHT22;23125;48.156;15.954;2023-05-29T14:34:10;26.40;31.40
37232;DHT22;23125;48.156;15.954;2023-05-29T14:36:37;26.40;31.40
37232;DHT22;23125;48.156;15.954;2023-05-29T14:39:03;26.40;31.70
37232;DHT22;23125;48.156;15.954;2023-05-29T14:41:30;26.40;31.90
37232;DHT22;23125;48.156;15.954;2023-05-29T14:43:57;26.50;32.30
37232;DHT22;23125;48.156;15.954;2023-05-29T14:46:26;26.50;32.40
37232;DHT22;23125;48.156;15.954;2023-05-29T14:48:55;26.50;32.30
37232;DHT22;23125;48.156;15.954;2023-05-29T14:51:21;26.50;32.40
37232;DHT22;23125;48.156;15.954;2023-05-29T14:53:48;26.50;32.50
37232;DHT22;23125;48.156;15.954;2023-05-29T14:56:14;26.50;32.60
37232;DHT22;23125;48.156;15.954;2023-05-29T14:58:41;26.50;32.70
37232;DHT22;23125;48.156;15.954;2023-05-29T15:01:07;26.50;32.70
37232;DHT22;23125;48.156;15.954;2023-05-29T15:03:33;26.50;32.50
37232;DHT22;23125;48.156;15.954;2023-05-29T15:06:02;26.50;32.70
37232;DHT22;23125;48.156;15.954;2023-05-29T15:08:29;26.50;33.00
37232;DHT22;23125;48.156;15.954;2023-05-29T15:11:00;26.50;33.00
37232;DHT22;23125;48.156;15.954;2023-05-29T15:13:29;26.50;33.10
37232;DHT22;23125;48.156;15.954;2023-05-29T15:15:56;26.50;33.50
37232;DHT22;23125;48.156;15.954;2023-05-29T15:18:25;26.50;34.00
37232;DHT22;23125;48.156;15.954;2023-05-29T15:20:52;26.60;33.40
37232;DHT22;23125;48.156;15.954;2023-05-29T15:23:18;26.50;33.30
37232;DHT22;23125;48.156;15.954;2023-05-29T15:25:48;26.50;33.40